Crymych, United Kingdom
Current Conditions -  °F | °C
As of 9:50 PM on Sunday 21 Dec 2014 (Local Time) from EGOP Reporting Station
Overcast Overcast  
Wind Chill: 11°   Ceiling: 200
Heat Index: 11°   Visibility: 1.4mi
Dew Point: 11°   Wind: 30mph
Humidity: 100%   Direction: 240°WSW
Pressure: 30.15"   Gusts: NA
Location:  52.03°N, 4.68°W
Report Text: EGOP 212150Z AUTO 24026KT 2300 // OVC002/// 11/11 Q1021
Loading
Personal Weather Stations






























Interactive Weather Map New forecast layout! Learn more

10-Day Weather Forecast

Advertisements
Track Severe Weather on mobile